createdAt,value
2023-01-17T00:00:01.635Z,84
2023-01-17T00:01:08.792Z,84
2023-01-17T00:02:16.040Z,84
2023-01-17T00:03:23.030Z,84
2023-01-17T00:04:29.600Z,84
2023-01-17T00:05:36.703Z,83
2023-01-17T00:06:43.785Z,84
2023-01-17T00:07:50.886Z,84
2023-01-17T00:08:58.569Z,84
2023-01-17T00:10:04.543Z,84
2023-01-17T00:11:11.661Z,84
2023-01-17T00:12:18.779Z,84
2023-01-17T00:13:25.920Z,84
2023-01-17T00:14:33.069Z,84
2023-01-17T00:15:39.603Z,84
2023-01-17T00:16:46.711Z,84
2023-01-17T00:17:53.829Z,85
2023-01-17T00:19:01.048Z,85
2023-01-17T00:20:08.124Z,85
2023-01-17T00:21:14.575Z,84
2023-01-17T00:22:21.679Z,84
2023-01-17T00:23:28.839Z,84
2023-01-17T00:24:35.900Z,84
2023-01-17T00:25:43.039Z,84
2023-01-17T00:26:49.609Z,84
2023-01-17T00:27:56.697Z,84
2023-01-17T00:29:03.761Z,84
2023-01-17T00:30:10.912Z,84
2023-01-17T00:31:18.187Z,84
2023-01-17T00:33:31.673Z,84
2023-01-17T00:34:39.436Z,84
2023-01-17T00:35:48.359Z,85
2023-01-17T00:36:53.027Z,85
2023-01-17T00:37:59.645Z,85
2023-01-17T00:39:06.757Z,85
2023-01-17T00:40:13.816Z,85
2023-01-17T00:41:20.910Z,85
2023-01-17T00:42:28.081Z,85
2023-01-17T00:43:34.610Z,85
2023-01-17T00:44:41.724Z,85
2023-01-17T00:45:48.787Z,85
2023-01-17T00:46:56.067Z,85
2023-01-17T00:48:03.023Z,85
2023-01-17T00:49:09.659Z,85
2023-01-17T00:50:16.821Z,85
2023-01-17T00:51:24.356Z,85
2023-01-17T00:52:30.958Z,85
2023-01-17T00:53:38.092Z,85
2023-01-17T00:54:44.623Z,85
2023-01-17T00:55:51.861Z,85
2023-01-17T00:56:58.872Z,85
2023-01-17T00:58:05.988Z,85
2023-01-17T00:59:13.068Z,84
2023-01-17T01:01:27.052Z,84
2023-01-17T01:02:33.964Z,84
2023-01-17T01:03:40.958Z,84
2023-01-17T01:04:47.580Z,84
2023-01-17T01:05:54.698Z,84
2023-01-17T01:07:01.804Z,84
2023-01-17T01:08:08.905Z,84
2023-01-17T01:09:16.002Z,84
2023-01-17T01:10:22.549Z,84
2023-01-17T01:11:29.681Z,83
2023-01-17T01:12:36.879Z,83
2023-01-17T01:13:43.877Z,83
2023-01-17T01:14:50.969Z,83
2023-01-17T01:15:57.606Z,83
2023-01-17T01:17:04.741Z,83
2023-01-17T01:18:11.765Z,83
2023-01-17T01:19:18.891Z,83
2023-01-17T01:20:25.983Z,83
2023-01-17T01:21:32.703Z,84
2023-01-17T01:22:39.786Z,84
2023-01-17T01:23:46.798Z,84
2023-01-17T01:24:53.846Z,84
2023-01-17T01:26:00.987Z,83
2023-01-17T01:27:07.640Z,83
2023-01-17T01:28:14.714Z,83
2023-01-17T01:29:21.740Z,83
2023-01-17T01:30:28.958Z,83
2023-01-17T01:31:36.137Z,83
2023-01-17T01:32:42.655Z,83
2023-01-17T01:33:49.722Z,83
2023-01-17T01:37:11.574Z,84
2023-01-17T01:38:17.630Z,84
2023-01-17T01:39:24.725Z,84
2023-01-17T01:40:31.802Z,84
2023-01-17T01:41:38.935Z,84
2023-01-17T01:42:46.083Z,84
2023-01-17T01:43:52.594Z,84
2023-01-17T01:44:59.736Z,84
2023-01-17T01:46:06.819Z,84
2023-01-17T01:47:13.901Z,84
2023-01-17T01:48:21.102Z,84
2023-01-17T01:49:27.590Z,84
2023-01-17T01:50:34.704Z,84
2023-01-17T01:51:41.819Z,84
2023-01-17T01:52:49.020Z,84
2023-01-17T01:53:56.120Z,84
2023-01-17T01:55:03.190Z,85
2023-01-17T01:56:09.765Z,85
2023-01-17T01:57:16.843Z,85
2023-01-17T01:58:23.933Z,85
2023-01-17T01:59:31.072Z,85
2023-01-17T02:00:37.694Z,85
2023-01-17T02:01:44.875Z,85
2023-01-17T02:03:59.049Z,85
2023-01-17T02:05:06.136Z,85
2023-01-17T02:06:13.172Z,85
2023-01-17T02:07:19.726Z,85
2023-01-17T02:08:26.865Z,85
2023-01-17T02:09:33.939Z,85
2023-01-17T02:10:41.067Z,85
2023-01-17T02:11:47.631Z,85
2023-01-17T02:12:54.772Z,84
2023-01-17T02:14:01.851Z,84
2023-01-17T02:15:08.981Z,84
2023-01-17T02:16:16.153Z,84
2023-01-17T02:17:22.639Z,84
2023-01-17T02:18:29.755Z,84
2023-01-17T02:19:36.886Z,84
2023-01-17T02:20:44.065Z,84
2023-01-17T02:21:51.115Z,84
2023-01-17T02:22:57.637Z,84
2023-01-17T02:24:04.708Z,84
2023-01-17T02:25:11.881Z,84
2023-01-17T02:26:19.009Z,84
2023-01-17T02:27:26.104Z,83
2023-01-17T02:29:39.821Z,83
2023-01-17T02:30:46.863Z,83
2023-01-17T02:31:54.056Z,83
2023-01-17T02:33:01.070Z,83
2023-01-17T02:34:07.701Z,83
2023-01-17T02:35:14.807Z,83
2023-01-17T02:36:21.826Z,83
2023-01-17T02:37:29.018Z,83
2023-01-17T02:38:36.112Z,83
2023-01-17T02:40:49.818Z,83
2023-01-17T02:41:56.879Z,83
2023-01-17T02:43:04.070Z,83
2023-01-17T02:44:11.093Z,83
2023-01-17T02:45:17.714Z,83
2023-01-17T02:46:24.793Z,83
2023-01-17T02:47:31.883Z,83
2023-01-17T02:48:39.090Z,83
2023-01-17T02:49:46.136Z,83
2023-01-17T02:50:52.655Z,83
2023-01-17T02:51:59.830Z,83
2023-01-17T02:53:06.920Z,83
2023-01-17T02:54:14.081Z,83
2023-01-17T02:55:21.064Z,83
2023-01-17T02:56:27.732Z,83
2023-01-17T02:57:34.930Z,83
2023-01-17T02:58:42.378Z,83
2023-01-17T02:59:49.097Z,83
2023-01-17T03:00:56.245Z,83
2023-01-17T03:02:02.939Z,83
2023-01-17T03:03:09.851Z,83
2023-01-17T03:04:16.964Z,83
2023-01-17T03:05:24.091Z,83
2023-01-17T03:06:31.144Z,83
2023-01-17T03:07:37.737Z,83
2023-01-17T03:08:45.316Z,83
2023-01-17T03:09:51.910Z,83
2023-01-17T03:10:59.164Z,82
2023-01-17T03:12:05.609Z,83
2023-01-17T03:13:12.715Z,82
2023-01-17T03:14:19.842Z,82
2023-01-17T03:15:26.960Z,82
2023-01-17T03:16:34.136Z,81
2023-01-17T03:17:41.126Z,81
2023-01-17T03:18:47.711Z,81
2023-01-17T03:19:54.869Z,81
2023-01-17T03:21:01.945Z,81
2023-01-17T03:22:09.063Z,81
2023-01-17T03:23:15.645Z,80
2023-01-17T03:24:22.730Z,80
2023-01-17T03:25:29.875Z,80
2023-01-17T03:26:37.020Z,80
2023-01-17T03:27:44.115Z,80
2023-01-17T03:28:50.625Z,80
2023-01-17T03:29:57.775Z,80
2023-01-17T03:31:04.939Z,79
2023-01-17T03:32:11.954Z,79
2023-01-17T03:33:18.522Z,79
2023-01-17T03:34:25.652Z,79
2023-01-17T03:35:32.759Z,79
2023-01-17T03:36:39.855Z,79
2023-01-17T03:37:47.074Z,79
2023-01-17T03:38:54.081Z,79
2023-01-17T03:40:00.647Z,79
2023-01-17T03:41:07.773Z,79
2023-01-17T03:42:14.910Z,79
2023-01-17T03:44:29.145Z,79
2023-01-17T03:45:35.756Z,78
2023-01-17T03:46:42.724Z,78
2023-01-17T03:47:49.934Z,78
2023-01-17T03:48:56.996Z,78
2023-01-17T03:50:04.050Z,78
2023-01-17T03:51:10.671Z,78
2023-01-17T03:52:17.778Z,78
2023-01-17T03:53:24.991Z,78
2023-01-17T03:54:31.978Z,79
2023-01-17T03:55:39.120Z,79
2023-01-17T03:57:52.769Z,80
2023-01-17T03:58:59.952Z,80
2023-01-17T04:00:07.076Z,80
2023-01-17T04:02:21.269Z,81
2023-01-17T04:03:27.789Z,81
2023-01-17T04:04:34.971Z,82
2023-01-17T04:05:41.961Z,82
2023-01-17T04:06:49.132Z,82
2023-01-17T04:07:55.710Z,82
2023-01-17T04:09:02.780Z,82
2023-01-17T04:10:09.928Z,82
2023-01-17T04:11:17.057Z,82
2023-01-17T04:12:24.089Z,83
2023-01-17T04:13:30.661Z,83
2023-01-17T04:14:37.837Z,83
2023-01-17T04:15:44.972Z,83
2023-01-17T04:16:52.587Z,83
2023-01-17T04:17:59.108Z,83
2023-01-17T04:19:05.715Z,83
2023-01-17T04:20:12.802Z,83
2023-01-17T04:21:20.060Z,84
2023-01-17T04:22:27.016Z,84
2023-01-17T04:23:34.161Z,84
2023-01-17T04:24:40.720Z,84
2023-01-17T04:25:48.609Z,84
2023-01-17T04:26:55.012Z,84
2023-01-17T04:28:02.037Z,84
2023-01-17T04:30:15.755Z,84
2023-01-17T04:31:22.837Z,84
2023-01-17T04:32:29.943Z,84
2023-01-17T04:33:37.605Z,85
2023-01-17T04:34:44.169Z,85
2023-01-17T04:35:50.720Z,85
2023-01-17T04:36:57.824Z,85
2023-01-17T04:38:05.030Z,85
2023-01-17T04:39:12.041Z,85
2023-01-17T04:40:19.199Z,85
2023-01-17T04:41:25.765Z,85
2023-01-17T04:42:32.892Z,85
2023-01-17T04:43:39.992Z,85
2023-01-17T04:44:47.050Z,85
2023-01-17T04:45:54.210Z,86
2023-01-17T04:48:07.922Z,86
2023-01-17T04:49:14.991Z,86
2023-01-17T04:50:22.099Z,86
2023-01-17T04:51:29.205Z,86
2023-01-17T04:52:35.770Z,86
2023-01-17T04:53:42.819Z,86
2023-01-17T04:54:50.002Z,86
2023-01-17T04:55:57.055Z,86
2023-01-17T04:57:04.199Z,86
2023-01-17T04:58:10.890Z,86
2023-01-17T04:59:17.915Z,86
2023-01-17T05:00:24.974Z,87
2023-01-17T05:01:32.186Z,87
2023-01-17T05:02:39.300Z,87
2023-01-17T05:03:45.761Z,87
2023-01-17T05:04:52.877Z,87
2023-01-17T05:06:00.499Z,87
2023-01-17T05:07:07.177Z,87
2023-01-17T05:08:14.210Z,87
2023-01-17T05:09:20.856Z,87
2023-01-17T05:10:27.921Z,87
2023-01-17T05:11:35.006Z,87
2023-01-17T05:12:42.144Z,87
2023-01-17T05:13:49.248Z,87
2023-01-17T05:14:55.810Z,87
2023-01-17T05:16:02.944Z,87
2023-01-17T05:17:10.061Z,87
2023-01-17T05:18:17.097Z,87
2023-01-17T05:19:23.681Z,87
2023-01-17T05:20:30.780Z,88
2023-01-17T05:21:37.918Z,88
2023-01-17T05:22:45.011Z,88
2023-01-17T05:23:52.057Z,88
2023-01-17T05:24:58.680Z,88
2023-01-17T05:26:05.831Z,88
2023-01-17T05:27:12.941Z,88
2023-01-17T05:28:20.003Z,88
2023-01-17T05:29:27.136Z,88
2023-01-17T05:30:33.660Z,88
2023-01-17T05:31:40.769Z,88
2023-01-17T05:32:47.990Z,88
2023-01-17T05:33:55.001Z,88
2023-01-17T05:35:02.071Z,88
2023-01-17T05:36:08.728Z,88
2023-01-17T05:37:15.811Z,88
2023-01-17T05:38:22.869Z,88
2023-01-17T05:39:30.050Z,88
2023-01-17T05:40:37.111Z,88
2023-01-17T05:41:43.714Z,88
2023-01-17T05:42:50.861Z,88
2023-01-17T05:43:57.946Z,88
2023-01-17T05:45:05.034Z,88
2023-01-17T05:46:12.239Z,88
2023-01-17T05:47:18.791Z,88
2023-01-17T05:48:25.862Z,88
2023-01-17T05:49:32.883Z,88
2023-01-17T05:51:47.111Z,88
2023-01-17T05:52:53.718Z,88
2023-01-17T05:54:00.848Z,88
2023-01-17T05:55:07.979Z,88
2023-01-17T05:56:15.071Z,88
2023-01-17T05:57:22.168Z,88
2023-01-17T05:58:28.762Z,88
2023-01-17T06:00:42.901Z,88
2023-01-17T06:01:50.559Z,89
2023-01-17T06:02:57.307Z,89
2023-01-17T06:04:03.732Z,89
2023-01-17T06:05:10.808Z,89
2023-01-17T06:06:17.996Z,89
2023-01-17T06:07:25.140Z,89
2023-01-17T06:08:32.261Z,89
2023-01-17T06:09:39.314Z,89
2023-01-17T06:10:45.890Z,89
2023-01-17T06:11:52.981Z,89
2023-01-17T06:13:00.162Z,89
2023-01-17T06:14:07.208Z,89
2023-01-17T06:15:13.750Z,89
2023-01-17T06:16:20.954Z,89
2023-01-17T06:17:28.037Z,89
2023-01-17T06:18:35.113Z,89
2023-01-17T06:19:42.187Z,89
2023-01-17T06:20:48.811Z,89
2023-01-17T06:21:55.906Z,89
2023-01-17T06:23:02.987Z,89
2023-01-17T06:24:10.103Z,89
2023-01-17T06:25:17.201Z,89
2023-01-17T06:26:23.765Z,90
2023-01-17T06:28:37.982Z,90
2023-01-17T06:29:45.081Z,90
2023-01-17T06:30:52.189Z,90
2023-01-17T06:32:01.524Z,90
2023-01-17T06:33:05.930Z,90
2023-01-17T06:34:12.947Z,89
2023-01-17T06:35:20.144Z,89
2023-01-17T06:36:27.180Z,89
2023-01-17T06:37:33.851Z,89
2023-01-17T06:38:40.888Z,89
2023-01-17T06:39:48.040Z,89
2023-01-17T06:40:55.121Z,89
2023-01-17T06:42:01.680Z,89
2023-01-17T06:43:08.888Z,89
2023-01-17T06:45:23.048Z,89
2023-01-17T06:46:30.193Z,89
2023-01-17T06:47:37.274Z,89
2023-01-17T06:48:43.767Z,89
2023-01-17T06:49:50.942Z,89
2023-01-17T06:50:58.010Z,89
2023-01-17T06:52:05.108Z,89
2023-01-17T06:55:26.062Z,88
2023-01-17T06:56:33.025Z,89
2023-01-17T06:57:40.194Z,89
2023-01-17T06:58:47.251Z,89
2023-01-17T06:59:53.782Z,88
2023-01-17T07:01:00.998Z,88
2023-01-17T07:02:08.062Z,88
2023-01-17T07:03:15.129Z,88
2023-01-17T07:04:21.676Z,88
2023-01-17T07:05:28.868Z,88
2023-01-17T07:06:35.970Z,89
2023-01-17T07:07:43.092Z,89
2023-01-17T07:08:50.164Z,89
2023-01-17T07:09:57.260Z,89
2023-01-17T07:11:03.822Z,89
2023-01-17T07:12:10.945Z,89
2023-01-17T07:13:18.601Z,89
2023-01-17T07:14:25.189Z,89
2023-01-17T07:15:31.721Z,89
2023-01-17T07:16:38.870Z,89
2023-01-17T07:17:45.985Z,89
2023-01-17T07:18:53.691Z,89
2023-01-17T07:20:00.247Z,89
2023-01-17T07:21:06.778Z,89
2023-01-17T07:22:14.001Z,89
2023-01-17T07:23:21.093Z,89
2023-01-17T07:24:28.105Z,89
2023-01-17T07:25:35.211Z,89
2023-01-17T07:26:41.770Z,89
2023-01-17T07:27:48.963Z,89
2023-01-17T07:28:56.007Z,89
2023-01-17T07:30:03.033Z,89
2023-01-17T07:31:10.272Z,89
2023-01-17T07:32:16.776Z,89
2023-01-17T07:33:23.851Z,89
2023-01-17T07:34:30.927Z,89
2023-01-17T07:35:38.061Z,89
2023-01-17T07:36:45.215Z,89
2023-01-17T07:37:51.806Z,89
2023-01-17T07:38:58.906Z,89
2023-01-17T07:40:05.968Z,89
2023-01-17T07:41:13.550Z,89
2023-01-17T07:42:21.034Z,89
2023-01-17T07:43:26.767Z,89
2023-01-17T07:44:33.831Z,89
2023-01-17T07:45:40.979Z,89
2023-01-17T07:47:55.269Z,89
2023-01-17T07:49:01.739Z,89
2023-01-17T07:50:08.880Z,89
2023-01-17T07:51:16.034Z,89
2023-01-17T07:52:23.118Z,89
2023-01-17T07:53:30.270Z,89
2023-01-17T07:54:36.793Z,89
2023-01-17T07:55:43.912Z,89
2023-01-17T07:56:50.986Z,89
2023-01-17T07:57:58.140Z,89
2023-01-17T07:59:05.225Z,89
2023-01-17T08:00:11.756Z,90
2023-01-17T08:01:18.987Z,89
2023-01-17T08:02:26.031Z,90
2023-01-17T08:03:33.079Z,89
2023-01-17T08:04:40.287Z,89
2023-01-17T08:05:48.645Z,89
2023-01-17T08:06:53.900Z,90
2023-01-17T08:08:01.011Z,90
2023-01-17T08:09:08.114Z,90
2023-01-17T08:10:15.270Z,90
2023-01-17T08:11:21.805Z,90
2023-01-17T08:12:28.908Z,90
2023-01-17T08:13:36.043Z,90
2023-01-17T08:15:50.288Z,90
2023-01-17T08:16:57.324Z,90
2023-01-17T08:18:03.889Z,90
2023-01-17T08:19:11.021Z,90
2023-01-17T08:20:18.171Z,90
2023-01-17T08:21:25.484Z,90
2023-01-17T08:22:31.814Z,90
2023-01-17T08:23:38.922Z,90
2023-01-17T08:24:46.057Z,90
2023-01-17T08:25:53.142Z,90
2023-01-17T08:27:00.322Z,90
2023-01-17T08:28:06.873Z,90
2023-01-17T08:29:13.927Z,90
2023-01-17T08:30:21.045Z,90
2023-01-17T08:31:28.264Z,90
2023-01-17T08:32:35.243Z,90
2023-01-17T08:33:41.836Z,90
2023-01-17T08:34:48.942Z,90
2023-01-17T08:35:56.096Z,90
2023-01-17T08:37:03.122Z,90
2023-01-17T08:38:10.333Z,90
2023-01-17T08:39:17.379Z,90
2023-01-17T08:40:23.993Z,90
2023-01-17T08:41:31.093Z,90
2023-01-17T08:43:45.320Z,90
2023-01-17T08:44:51.831Z,90
2023-01-17T08:45:59.189Z,90
2023-01-17T08:47:06.087Z,90
2023-01-17T08:48:13.232Z,90
2023-01-17T08:49:20.758Z,91
2023-01-17T08:50:26.925Z,90
2023-01-17T08:51:33.981Z,91
2023-01-17T08:52:41.154Z,91
2023-01-17T08:53:48.219Z,91
2023-01-17T08:54:55.306Z,91
2023-01-17T08:56:01.882Z,91
2023-01-17T08:57:09.015Z,91
2023-01-17T08:59:23.266Z,91
2023-01-17T09:00:30.270Z,91
2023-01-17T09:01:37.199Z,91
2023-01-17T09:02:44.044Z,91
2023-01-17T09:03:51.092Z,91
2023-01-17T09:04:58.230Z,91
2023-01-17T09:06:05.349Z,91
2023-01-17T09:07:11.890Z,91
2023-01-17T09:08:19.060Z,91
2023-01-17T09:09:26.152Z,91
2023-01-17T09:11:40.312Z,91
2023-01-17T09:15:01.113Z,90
2023-01-17T09:16:08.307Z,90
2023-01-17T09:17:15.380Z,90
2023-01-17T09:18:21.983Z,90
2023-01-17T09:19:29.038Z,90
2023-01-17T09:21:43.214Z,89
2023-01-17T09:22:50.350Z,89
2023-01-17T09:23:56.931Z,89
2023-01-17T09:25:04.034Z,89
2023-01-17T09:26:11.127Z,89
2023-01-17T09:27:18.271Z,89
2023-01-17T09:28:25.377Z,89
2023-01-17T09:29:31.940Z,89
2023-01-17T09:30:39.122Z,89
2023-01-17T09:31:46.123Z,89
2023-01-17T09:32:53.254Z,89
2023-01-17T09:34:00.349Z,89
2023-01-17T09:35:06.950Z,89
2023-01-17T09:36:14.061Z,89
2023-01-17T09:37:21.090Z,88
2023-01-17T09:38:28.287Z,88
2023-01-17T09:39:34.914Z,88
2023-01-17T09:40:41.924Z,88
2023-01-17T09:41:49.054Z,88
2023-01-17T09:42:56.226Z,88
2023-01-17T09:44:03.239Z,88
2023-01-17T09:45:09.885Z,88
2023-01-17T09:46:16.999Z,88
2023-01-17T09:47:24.162Z,88
2023-01-17T09:48:31.172Z,88
2023-01-17T09:49:38.314Z,88
2023-01-17T09:50:45.379Z,88
2023-01-17T09:51:51.929Z,88
2023-01-17T09:52:59.115Z,88
2023-01-17T09:54:06.233Z,88
2023-01-17T09:55:13.261Z,88
2023-01-17T09:56:19.904Z,88
2023-01-17T09:57:26.988Z,88
2023-01-17T09:58:34.070Z,88
2023-01-17T09:59:44.343Z,88
2023-01-17T10:00:48.371Z,88
2023-01-17T10:01:55.121Z,88
2023-01-17T10:03:01.997Z,88
2023-01-17T10:04:09.176Z,88
2023-01-17T10:05:16.371Z,88
2023-01-17T10:06:23.287Z,88
2023-01-17T10:07:29.913Z,88
2023-01-17T10:08:36.986Z,88
2023-01-17T10:09:44.101Z,88
2023-01-17T10:10:51.234Z,88
2023-01-17T10:11:58.319Z,88
2023-01-17T10:13:04.919Z,88
2023-01-17T10:14:11.975Z,88
2023-01-17T10:15:19.109Z,88
2023-01-17T10:16:26.283Z,88
2023-01-17T10:17:33.285Z,88
2023-01-17T10:18:39.903Z,88
2023-01-17T10:19:47.032Z,88
2023-01-17T10:20:54.112Z,88
2023-01-17T10:22:01.262Z,88
2023-01-17T10:23:08.368Z,88
2023-01-17T10:25:21.961Z,88
2023-01-17T10:27:36.227Z,88
2023-01-17T10:28:43.334Z,88
2023-01-17T10:29:49.962Z,88
2023-01-17T10:30:57.136Z,88
2023-01-17T10:32:04.099Z,88
2023-01-17T10:33:11.245Z,88
2023-01-17T10:34:18.367Z,89
2023-01-17T10:35:24.928Z,89
2023-01-17T10:36:32.027Z,89
2023-01-17T10:37:39.120Z,89
2023-01-17T10:38:46.261Z,89
2023-01-17T10:39:53.355Z,89
2023-01-17T10:40:59.908Z,90
2023-01-17T10:42:07.061Z,89
2023-01-17T10:43:14.170Z,89
2023-01-17T10:44:21.213Z,89
2023-01-17T10:45:28.332Z,89
2023-01-17T10:46:34.905Z,89
2023-01-17T10:47:42.101Z,89
2023-01-17T10:48:49.133Z,89
2023-01-17T10:49:56.284Z,89
2023-01-17T10:51:03.366Z,88
2023-01-17T10:52:10.001Z,88
2023-01-17T10:53:17.067Z,88
2023-01-17T10:54:24.170Z,88
2023-01-17T10:55:31.244Z,88
2023-01-17T10:56:38.379Z,88
2023-01-17T10:57:45.011Z,88
2023-01-17T10:58:52.103Z,87
2023-01-17T10:59:59.174Z,87
2023-01-17T11:01:06.395Z,87
2023-01-17T11:02:13.494Z,87
2023-01-17T11:03:20.045Z,87
2023-01-17T11:04:27.072Z,87
2023-01-17T11:05:34.183Z,86
2023-01-17T11:06:53.272Z,86
2023-01-17T11:07:48.504Z,86
2023-01-17T11:08:54.968Z,86
2023-01-17T11:10:02.009Z,86
2023-01-17T11:11:09.198Z,86
2023-01-17T11:12:16.258Z,86
2023-01-17T11:13:23.381Z,86
2023-01-17T11:14:29.992Z,86
2023-01-17T11:15:37.164Z,86
2023-01-17T11:16:44.221Z,85
2023-01-17T11:17:51.310Z,85
2023-01-17T11:18:58.426Z,85
2023-01-17T11:20:05.036Z,85
2023-01-17T11:21:12.281Z,85
2023-01-17T11:22:19.207Z,85
2023-01-17T11:23:26.363Z,85
2023-01-17T11:24:33.355Z,85
2023-01-17T11:25:39.993Z,85
2023-01-17T11:26:47.056Z,85
2023-01-17T11:29:01.331Z,85
2023-01-17T11:30:08.404Z,85
2023-01-17T11:31:15.001Z,85
2023-01-17T11:32:22.074Z,85
2023-01-17T11:33:30.797Z,85
2023-01-17T11:34:36.333Z,85
2023-01-17T11:35:43.391Z,85
2023-01-17T11:36:50.049Z,84
2023-01-17T11:37:57.201Z,84
2023-01-17T11:39:04.199Z,84
2023-01-17T11:40:11.258Z,84
2023-01-17T11:41:18.465Z,84
2023-01-17T11:42:25.017Z,84
2023-01-17T11:43:32.165Z,84
2023-01-17T11:44:39.197Z,84
2023-01-17T11:45:48.759Z,84
2023-01-17T11:46:52.893Z,84
2023-01-17T11:48:00.029Z,84
2023-01-17T11:49:07.161Z,84
2023-01-17T11:50:14.211Z,84
2023-01-17T11:51:21.316Z,84
2023-01-17T11:52:27.890Z,84
2023-01-17T11:53:35.038Z,84
2023-01-17T11:55:49.267Z,83
2023-01-17T11:56:56.359Z,83
2023-01-17T11:58:02.869Z,83
2023-01-17T11:59:10.051Z,83
2023-01-17T12:00:17.122Z,83
2023-01-17T12:01:24.383Z,83
2023-01-17T12:02:31.355Z,83
2023-01-17T12:03:38.023Z,83
2023-01-17T12:04:45.040Z,83
2023-01-17T12:05:52.119Z,83
2023-01-17T12:06:59.314Z,83
2023-01-17T12:08:06.383Z,83
2023-01-17T12:09:12.917Z,83
2023-01-17T12:10:20.023Z,83
2023-01-17T12:11:27.153Z,83
2023-01-17T12:12:34.219Z,83
2023-01-17T12:13:41.303Z,83
2023-01-17T12:14:47.993Z,83
2023-01-17T12:15:55.165Z,83
2023-01-17T12:17:02.120Z,83
2023-01-17T12:18:09.354Z,83
2023-01-17T12:19:16.350Z,83
2023-01-17T12:20:22.931Z,83
2023-01-17T12:21:30.076Z,83
2023-01-17T12:22:37.196Z,83
2023-01-17T12:23:44.335Z,82
2023-01-17T12:24:51.369Z,82
2023-01-17T12:25:57.979Z,82
2023-01-17T12:27:05.040Z,82
2023-01-17T12:28:12.228Z,82
2023-01-17T12:29:19.255Z,82
2023-01-17T12:30:26.392Z,83
2023-01-17T12:32:40.099Z,83
2023-01-17T12:33:47.212Z,83
2023-01-17T12:34:54.410Z,83
2023-01-17T12:36:01.446Z,83
2023-01-17T12:37:08.003Z,83
2023-01-17T12:38:27.413Z,83
2023-01-17T12:39:22.134Z,83
2023-01-17T12:40:29.330Z,83
2023-01-17T12:41:36.412Z,83
2023-01-17T12:42:43.027Z,83
2023-01-17T12:43:50.109Z,83
2023-01-17T12:44:57.313Z,83
2023-01-17T12:46:04.334Z,83
2023-01-17T12:47:11.383Z,83
2023-01-17T12:48:18.064Z,83
2023-01-17T12:49:25.152Z,83
2023-01-17T12:50:32.152Z,83
2023-01-17T12:51:39.307Z,83
2023-01-17T12:52:46.406Z,83
2023-01-17T12:53:52.989Z,83
2023-01-17T12:55:00.157Z,83
2023-01-17T12:56:07.192Z,83
2023-01-17T12:57:14.362Z,83
2023-01-17T12:58:21.462Z,83
2023-01-17T12:59:27.986Z,83
2023-01-17T13:00:35.227Z,83
2023-01-17T13:01:42.260Z,83
2023-01-17T13:02:50.788Z,83
2023-01-17T13:03:57.748Z,83
2023-01-17T13:05:03.001Z,83
2023-01-17T13:06:10.130Z,83
2023-01-17T13:07:17.267Z,83
2023-01-17T13:08:24.400Z,83
2023-01-17T13:09:31.420Z,83
2023-01-17T13:10:38.040Z,83
2023-01-17T13:11:45.116Z,83
2023-01-17T13:12:52.224Z,83
2023-01-17T13:13:59.393Z,83
2023-01-17T13:15:06.462Z,83
2023-01-17T13:16:13.081Z,83
2023-01-17T13:17:20.192Z,83
2023-01-17T13:18:27.334Z,82
2023-01-17T13:19:34.353Z,82
2023-01-17T13:20:41.449Z,82
2023-01-17T13:21:48.021Z,82
2023-01-17T13:24:02.365Z,82
2023-01-17T13:25:09.366Z,82
2023-01-17T13:26:16.500Z,82
2023-01-17T13:27:23.031Z,81
2023-01-17T13:28:30.235Z,81
2023-01-17T13:29:37.268Z,81
2023-01-17T13:30:44.387Z,80
2023-01-17T13:31:51.513Z,80
2023-01-17T13:32:58.076Z,80
2023-01-17T13:34:05.206Z,79
2023-01-17T13:36:19.412Z,79
2023-01-17T13:37:26.469Z,78
2023-01-17T13:38:33.111Z,78
2023-01-17T13:39:40.190Z,78
2023-01-17T13:40:47.423Z,78
2023-01-17T13:41:54.398Z,78
2023-01-17T13:43:01.501Z,77
2023-01-17T13:44:08.112Z,77
2023-01-17T13:45:15.190Z,77
2023-01-17T13:46:22.306Z,77
2023-01-17T13:47:29.386Z,77
2023-01-17T13:48:39.691Z,76
2023-01-17T13:49:43.016Z,76
2023-01-17T13:50:50.157Z,76
2023-01-17T13:51:57.267Z,76
2023-01-17T13:53:04.541Z,75
2023-01-17T13:54:10.963Z,75
2023-01-17T13:55:18.262Z,75
2023-01-17T13:56:25.191Z,75
2023-01-17T13:57:32.277Z,74
2023-01-17T13:58:39.432Z,74
2023-01-17T13:59:45.983Z,74
2023-01-17T14:00:53.155Z,74
2023-01-17T14:02:00.183Z,73
2023-01-17T14:03:07.357Z,73
2023-01-17T14:04:14.441Z,73
2023-01-17T14:05:21.043Z,73
2023-01-17T14:06:28.094Z,73
2023-01-17T14:07:35.231Z,73
2023-01-17T14:08:42.351Z,73
2023-01-17T14:09:49.375Z,73
2023-01-17T14:10:56.011Z,73
2023-01-17T14:12:03.079Z,73
2023-01-17T14:13:10.241Z,73
2023-01-17T14:14:17.349Z,73
2023-01-17T14:15:24.450Z,72
2023-01-17T14:16:31.056Z,72
2023-01-17T14:17:38.154Z,72
2023-01-17T14:18:45.329Z,72
2023-01-17T14:19:52.279Z,72
2023-01-17T14:20:59.611Z,72
2023-01-17T14:22:06.070Z,72
2023-01-17T14:23:13.159Z,72
2023-01-17T14:24:20.241Z,72
2023-01-17T14:25:27.365Z,73
2023-01-17T14:26:34.435Z,73
2023-01-17T14:27:41.019Z,73
2023-01-17T14:28:48.160Z,73
2023-01-17T14:29:55.280Z,73
2023-01-17T14:31:02.298Z,73
2023-01-17T14:32:09.430Z,73
2023-01-17T14:33:16.086Z,73
2023-01-17T14:34:23.149Z,73
2023-01-17T14:35:30.250Z,73
2023-01-17T14:36:37.406Z,74
2023-01-17T14:37:44.503Z,74
2023-01-17T14:39:58.122Z,74
2023-01-17T14:41:05.230Z,74
2023-01-17T14:42:12.317Z,74
2023-01-17T14:43:19.495Z,74
2023-01-17T14:44:26.063Z,74
2023-01-17T14:45:33.227Z,74
2023-01-17T14:46:40.301Z,74
2023-01-17T14:47:47.448Z,74
2023-01-17T14:48:54.457Z,74
2023-01-17T14:50:01.021Z,74
2023-01-17T14:52:15.245Z,74
2023-01-17T14:53:22.415Z,74
2023-01-17T14:54:29.550Z,74
2023-01-17T14:55:36.079Z,74
2023-01-17T14:56:43.179Z,74
2023-01-17T14:57:50.283Z,74
2023-01-17T14:58:57.361Z,74
2023-01-17T15:00:04.591Z,74
2023-01-17T15:01:11.161Z,74
2023-01-17T15:02:18.459Z,74
2023-01-17T15:03:25.488Z,74
2023-01-17T15:04:32.381Z,74
2023-01-17T15:05:39.502Z,74
2023-01-17T15:06:48.160Z,74
2023-01-17T15:07:53.241Z,74
2023-01-17T15:09:00.274Z,74
2023-01-17T15:10:07.367Z,74
2023-01-17T15:11:14.546Z,75
2023-01-17T15:12:21.079Z,75
2023-01-17T15:13:42.790Z,75
2023-01-17T15:14:35.330Z,75
2023-01-17T15:15:42.427Z,75
2023-01-17T15:16:49.589Z,76
2023-01-17T15:17:56.173Z,76
2023-01-17T15:20:10.335Z,76
2023-01-17T15:21:17.421Z,76
2023-01-17T15:22:24.535Z,77
2023-01-17T15:23:31.142Z,77
2023-01-17T15:24:38.247Z,77
2023-01-17T15:25:45.312Z,78
2023-01-17T15:26:52.418Z,78
2023-01-17T15:27:59.537Z,79
2023-01-17T15:29:06.100Z,79
2023-01-17T15:30:13.320Z,79
2023-01-17T15:31:20.284Z,80
2023-01-17T15:32:27.449Z,80
2023-01-17T15:33:34.049Z,80
2023-01-17T15:34:41.078Z,80
2023-01-17T15:35:48.254Z,81
2023-01-17T15:36:55.365Z,81
2023-01-17T15:38:02.486Z,81
2023-01-17T15:39:09.088Z,81
2023-01-17T15:40:16.149Z,81
2023-01-17T15:41:23.181Z,81
2023-01-17T15:43:37.529Z,81
2023-01-17T15:44:48.970Z,81
2023-01-17T15:45:51.115Z,81
2023-01-17T15:48:05.435Z,81
2023-01-17T15:49:13.051Z,81
2023-01-17T15:50:19.093Z,81
2023-01-17T15:51:26.161Z,82
2023-01-17T15:52:33.250Z,82
2023-01-17T15:53:40.427Z,82
2023-01-17T15:54:47.547Z,82
2023-01-17T15:55:54.058Z,82
2023-01-17T15:57:01.160Z,82
2023-01-17T15:58:08.289Z,82
2023-01-17T15:59:15.392Z,82
2023-01-17T16:00:22.407Z,82
2023-01-17T16:01:29.117Z,82
2023-01-17T16:02:36.174Z,82
2023-01-17T16:03:43.334Z,83
2023-01-17T16:04:50.350Z,83
2023-01-17T16:05:57.502Z,83
2023-01-17T16:07:04.053Z,83
2023-01-17T16:08:11.167Z,84
2023-01-17T16:09:18.297Z,84
2023-01-17T16:10:25.361Z,84
2023-01-17T16:11:32.460Z,84
2023-01-17T16:12:39.105Z,85
2023-01-17T16:13:46.508Z,85
2023-01-17T16:15:10.888Z,85
2023-01-17T16:16:00.440Z,85
2023-01-17T16:17:07.539Z,85
2023-01-17T16:18:14.111Z,84
2023-01-17T16:20:28.255Z,84
2023-01-17T16:21:35.387Z,84
2023-01-17T16:22:42.496Z,84
2023-01-17T16:23:49.157Z,84
2023-01-17T16:24:56.212Z,84
2023-01-17T16:26:03.246Z,84
2023-01-17T16:27:10.385Z,84
2023-01-17T16:28:17.519Z,84
2023-01-17T16:29:24.182Z,84
2023-01-17T16:30:31.156Z,84
2023-01-17T16:31:38.290Z,84
2023-01-17T16:32:45.424Z,84
2023-01-17T16:33:52.940Z,84
2023-01-17T16:34:59.123Z,84
2023-01-17T16:36:06.245Z,84
2023-01-17T16:37:13.325Z,84
2023-01-17T16:38:20.473Z,84